TimeEST,TemperatureF,Dew PointF,Humidity,Sea Level PressureIn,VisibilityMPH,Wind Direction,Wind SpeedMPH,Gust SpeedMPH,PrecipitationIn,Events,Conditions,WindDirDegrees,DateUTC
12:53 AM,32.0,21.9,66,29.99,10.0,East,5.8,-,N/A,,Clear,100,2012-11-07 05:53:00
1:53 AM,30.9,21.9,69,30.00,10.0,East,5.8,-,N/A,,Clear,100,2012-11-07 06:53:00
2:53 AM,30.0,21.9,72,29.99,10.0,ENE,4.6,-,N/A,,Clear,60,2012-11-07 07:53:00
3:53 AM,30.0,21.0,69,29.99,10.0,East,5.8,-,N/A,,Clear,100,2012-11-07 08:53:00
4:53 AM,28.0,21.0,75,29.98,10.0,ENE,4.6,-,N/A,,Clear,70,2012-11-07 09:53:00
5:53 AM,30.0,21.0,69,29.98,10.0,ENE,5.8,-,N/A,,Clear,70,2012-11-07 10:53:00
6:53 AM,28.0,19.9,72,30.00,10.0,ENE,5.8,-,N/A,,Clear,70,2012-11-07 11:53:00
7:53 AM,28.0,21.0,75,30.02,10.0,ENE,5.8,-,N/A,,Clear,60,2012-11-07 12:53:00
8:53 AM,30.9,21.9,69,30.04,10.0,East,6.9,-,N/A,,Clear,100,2012-11-07 13:53:00
9:53 AM,33.1,23.0,66,30.04,10.0,East,5.8,-,N/A,,Clear,90,2012-11-07 14:53:00
10:53 AM,35.1,24.1,64,30.05,10.0,East,3.5,-,N/A,,Clear,100,2012-11-07 15:53:00
11:53 AM,37.0,23.0,57,30.02,10.0,ENE,4.6,-,N/A,,Clear,60,2012-11-07 16:53:00
12:53 PM,39.0,23.0,53,30.00,10.0,NE,5.8,-,N/A,,Clear,50,2012-11-07 17:53:00
1:53 PM,39.9,21.0,47,30.01,10.0,NNE,3.5,-,N/A,,Clear,20,2012-11-07 18:53:00
2:53 PM,39.9,21.0,47,30.01,10.0,North,10.4,-,N/A,,Clear,10,2012-11-07 19:53:00
3:53 PM,39.0,18.0,43,30.02,10.0,NE,11.5,-,N/A,,Clear,40,2012-11-07 20:53:00
4:53 PM,37.0,19.0,48,30.04,10.0,NNE,5.8,-,N/A,,Clear,30,2012-11-07 21:53:00
5:53 PM,35.1,18.0,50,30.06,10.0,North,3.5,-,N/A,,Clear,10,2012-11-07 22:53:00
6:53 PM,33.1,21.0,61,30.08,10.0,North,4.6,-,N/A,,Clear,10,2012-11-07 23:53:00
7:53 PM,34.0,21.0,59,30.08,10.0,NE,5.8,-,N/A,,Clear,40,2012-11-08 00:53:00
8:53 PM,32.0,21.0,64,30.08,10.0,NNE,6.9,-,N/A,,Clear,30,2012-11-08 01:53:00
9:53 PM,30.9,21.0,67,30.09,10.0,North,5.8,-,N/A,,Clear,10,2012-11-08 02:53:00
10:53 PM,30.0,21.0,69,30.09,10.0,NNE,8.1,-,N/A,,Clear,30,2012-11-08 03:53:00
11:53 PM,30.0,19.9,66,30.09,10.0,NNE,9.2,-,N/A,,Clear,20,2012-11-08 04:53:00